Acme, Canada
Current Conditions -  °F | °C
As of 7:00 PM on Thursday 20 Nov 2014 (Local Time) from CYYC Reporting Station
Scattered Clouds Scattered Clouds  
Wind Chill: 38°   Ceiling: Unl
Heat Index: 45°   Visibility: 15mi
Dew Point: 25°   Wind: 15mph
Humidity: 46%   Direction: 260°W
Pressure: 29.56"   Gusts: 26mph
Location:  51.5°N, 113.5°W
Report Text: CYYC 210200Z 26013G23KT 15SM SCT100 SCT280 07/M04 A2956 RMK AC3CI1 SLP047 DENSITY ALT 3900FT
Loading
Personal Weather Stations






























Interactive Weather Map New forecast layout! Learn more

10-Day Weather Forecast

Advertisements
Track Severe Weather on mobile